Asbury, Iowa
Current Conditions -  °F | °C
As of 2:53 AM on Friday 19 Dec 2014 (Local Time) from KDBQ Reporting Station
Overcast Overcast  
Wind Chill: -5°   Ceiling: 1600
Heat Index: -5°   Visibility: 10mi
Dew Point: -7°   Wind: 0mph
Humidity: 85%   Direction: NA
Pressure: 30.29"   Gusts: NA
Location:  42.522°N, 90.7782°W
Report Text: KDBQ 190853Z AUTO 00000KT 10SM OVC016 M05/M07 A3029 RMK AO2 SLP272 T10501072 53003 $
Loading
Personal Weather Stations






























Interactive Weather Map New forecast layout! Learn more

10-Day Weather Forecast

Advertisements
Track Severe Weather on mobile